Terminal Aerodrome Forecast
Issued by NWS

Home | Current Version | Previous Version | Text Only | Print | Product List | Glossary On
Versions: 1 2 3 4 5 6 7 8 9 10 11 12 13 14 15 16 17
758
FTUS42 KGSP 261957 AAA
TAFGMU
TAF AMD
KGMU 261957Z 2620/2718 24006KT P6SM VCTS SCT060CB
      TEMPO 2620/2622 4SM -TSRA BKN040CB
     FM270100 25004KT P6SM SCT070=

USA.gov is the U.S. government's official web portal to all federal, state and local government web resources and services.